This is the latest recevied weather packets stored in our database for station/object AB0TJ. If no packets are shown the sender has not sent any weather packets the latest 1 day(s).
| Time | Temp. | Humidity | Pressure | Rain* | Wind** | Luminosity | Snow |
|---|---|---|---|---|---|---|---|
| 1836274507 | 16.11° C | 53% | 1020 hPa | 0 mm | 0 m/s | 0 W/m² | - |
| 1836274257 | 16.11° C | 53% | 1019.9 hPa | 0 mm | 0 m/s | 0 W/m² | - |
| 1836273972 | 16.11° C | 52% | 1020 hPa | 0 mm | 0.45 m/s, 104° | 0 W/m² | - |
| 1778040777 | 13.89° C | 44% | 1008.7 hPa | 0 mm | 1.79 m/s, 337° | 0 W/m² | - |
| 1778040294 | 13.89° C | 44% | 1008.9 hPa | 0 mm | 2.24 m/s, 328° | 0 W/m² | - |
| 1778039789 | 13.89° C | 44% | 1008.5 hPa | 0 mm | 1.34 m/s, 295° | 0 W/m² | - |
| 1778039224 | 13.89° C | 44% | 1008.4 hPa | 0 mm | 0.89 m/s, 348° | 0 W/m² | - |
| 1778038689 | 14.44° C | 44% | 1008.2 hPa | 0 mm | 0.89 m/s, 303° | 0 W/m² | - |
| 1778038164 | 14.44° C | 43% | 1008.1 hPa | 0 mm | 0.89 m/s, 337° | 0 W/m² | - |
| 1778037619 | 14.44° C | 43% | 1008 hPa | 0 mm | 1.34 m/s, 321° | 0 W/m² | - |
| 1778037032 | 14.44° C | 43% | 1007.8 hPa | 0 mm | 0.89 m/s, 326° | 0 W/m² | - |
| 1778036469 | 14.44° C | 43% | 1007.7 hPa | 0 mm | 1.34 m/s, 309° | 0 W/m² | - |
| 1778035912 | 14.44° C | 42% | 1007.6 hPa | 0 mm | 2.24 m/s, 301° | 0 W/m² | - |
| 1778035429 | 14.44° C | 42% | 1007.7 hPa | 0 mm | 2.68 m/s, 303° | 0 W/m² | - |
| 1778034859 | 14.44° C | 42% | 1007.3 hPa | 0 mm | 2.24 m/s, 294° | 0 W/m² | - |
| 1778034349 | 15° C | 42% | 1007.5 hPa | 0 mm | 2.24 m/s, 296° | 0 W/m² | - |
| 1778033752 | 15° C | 41% | 1007.2 hPa | 0 mm | 3.58 m/s, 313° | 1 W/m² | - |
| 1778033232 | 15° C | 40% | 1007.2 hPa | 0 mm | 2.24 m/s, 311° | 3 W/m² | - |
| 1778032732 | 15.56° C | 39% | 1007 hPa | 0 mm | 2.68 m/s, 312° | 5 W/m² | - |
| 1778032149 | 15.56° C | 37% | 1006.7 hPa | 0 mm | 3.13 m/s, 293° | 10 W/m² | - |
| 1778031592 | 16.11° C | 37% | 1006.5 hPa | 0 mm | 1.79 m/s, 290° | 17 W/m² | - |
| 1778031092 | 16.11° C | 37% | 1006.3 hPa | 0 mm | 2.24 m/s, 272° | 30 W/m² | - |
| 1778030499 | 16.67° C | 35% | 1006 hPa | 0 mm | 2.68 m/s, 279° | 39 W/m² | - |
| 1778029952 | 16.67° C | 34% | 1006 hPa | 0 mm | 3.58 m/s, 316° | 44 W/m² | - |
| 1778029409 | 17.22° C | 34% | 1005.5 hPa | 0 mm | 4.47 m/s, 281° | 71 W/m² | - |
* Rain latest hour (hover to see other rain measurements)
** Current wind speed in m/s (hover to see current wind gust speed)